Time;durP1;ratioP1;P1;durP2;ratioP2;P2;SDS_P1;SDS_P2;PMS_P1;PMS_P2;Temp;Humidity;BMP_temperature;BMP_pressure;BME280_temperature;BME280_humidity;BME280_pressure;Samples;Min_cycle;Max_cycle;Signal;HPM_P1;HPM_P2
2023/09/12 00:01:32;;;;;;;0.50;0.30;;;;;;;18.09;53.87;95523.94;5074643;28;20520;-56
2023/09/12 00:04:01;;;;;;;0.50;0.40;;;;;;;18.11;53.63;95529.00;5074448;28;20440;-55
2023/09/12 00:06:29;;;;;;;0.60;0.50;;;;;;;18.12;54.42;95523.31;5048818;28;20846;-55
2023/09/12 00:08:57;;;;;;;0.40;0.30;;;;;;;17.90;55.08;95525.28;5073778;28;20481;-55
2023/09/12 00:11:26;;;;;;;0.40;0.30;;;;;;;17.78;55.23;95528.56;5074756;28;20571;-55
2023/09/12 00:13:56;;;;;;;0.40;0.20;;;;;;;17.96;53.84;95532.09;5073556;28;20448;-55
2023/09/12 00:16:25;;;;;;;0.50;0.43;;;;;;;18.03;53.81;95535.13;5074552;28;20945;-55
2023/09/12 00:18:53;;;;;;;0.40;0.30;;;;;;;18.17;53.26;95530.41;5074217;28;20523;-55
2023/09/12 00:21:21;;;;;;;0.80;0.30;;;;;;;17.89;55.11;95531.75;5074126;28;20963;-55
2023/09/12 00:23:50;;;;;;;0.40;0.20;;;;;;;17.67;55.93;95538.75;5073729;28;20454;-55
2023/09/12 00:26:18;;;;;;;3.80;0.40;;;;;;;17.70;55.28;95537.34;5074341;28;20492;-55
2023/09/12 00:28:46;;;;;;;0.40;0.30;;;;;;;17.41;56.17;95545.81;5074092;28;20473;-55
2023/09/12 00:31:16;;;;;;;0.50;0.30;;;;;;;17.39;56.14;95542.66;5074336;28;20506;-55
2023/09/12 00:33:45;;;;;;;0.50;0.40;;;;;;;17.52;56.18;95547.19;5074136;28;20518;-55
2023/09/12 00:36:12;;;;;;;0.40;0.30;;;;;;;17.64;56.38;95543.94;5074573;28;20434;-55
2023/09/12 00:38:40;;;;;;;0.50;0.30;;;;;;;17.51;56.14;95534.84;5073688;28;20502;-55
2023/09/12 00:41:09;;;;;;;0.40;0.20;;;;;;;17.66;56.11;95537.16;5073627;28;20539;-55
2023/09/12 00:43:37;;;;;;;0.70;0.47;;;;;;;17.52;56.57;95533.78;5073926;28;20464;-55
2023/09/12 00:46:05;;;;;;;0.40;0.23;;;;;;;17.44;57.12;95531.81;5073759;28;20472;-55
2023/09/12 00:48:39;;;;;;;0.50;0.30;;;;;;;17.53;56.46;95532.69;5073028;28;20578;-55
2023/09/12 00:51:08;;;;;;;0.40;0.30;;;;;;;17.61;56.66;95545.34;5073222;28;20572;-55
2023/09/12 00:53:36;;;;;;;0.43;0.30;;;;;;;17.07;57.45;95524.97;5073793;28;20449;-55
2023/09/12 00:56:05;;;;;;;6.83;0.90;;;;;;;16.91;58.07;95534.47;5073299;28;20441;-55
2023/09/12 00:58:34;;;;;;;0.50;0.40;;;;;;;16.80;59.16;95545.72;5064932;28;20496;-55
2023/09/12 01:01:04;;;;;;;0.40;0.30;;;;;;;17.09;58.00;95538.84;5069263;28;20791;-55
2023/09/12 01:03:33;;;;;;;0.40;0.20;;;;;;;17.40;56.59;95538.09;5071815;28;21004;-56
2023/09/12 01:06:05;;;;;;;1.70;0.50;;;;;;;17.46;57.58;95540.34;5073259;28;20468;-55
2023/09/12 01:08:33;;;;;;;0.40;0.30;;;;;;;17.05;58.53;95547.81;5073613;28;20844;-55
2023/09/12 01:11:02;;;;;;;0.40;0.30;;;;;;;17.28;57.62;95548.59;5073198;28;20498;-55
2023/09/12 01:13:31;;;;;;;0.40;0.20;;;;;;;16.77;59.64;95557.03;5073758;28;20493;-55
2023/09/12 01:15:59;;;;;;;1.03;0.30;;;;;;;16.44;61.09;95565.16;5072719;28;20437;-55
2023/09/12 01:18:27;;;;;;;0.57;0.30;;;;;;;16.63;60.71;95556.25;5073398;28;20446;-55
2023/09/12 01:21:22;;;;;;;0.40;0.20;;;;;;;16.38;61.97;95562.91;5072798;28;20517;-55
2023/09/12 01:24:08;;;;;;;0.40;0.20;;;;;;;16.24;62.36;95565.59;5029044;28;20446;-54
2023/09/12 01:26:49;;;;;;;0.50;0.30;;;;;;;16.18;62.64;95564.13;5073384;28;20476;-55
2023/09/12 01:29:22;;;;;;;0.60;0.60;;;;;;;15.83;62.79;95568.28;5047534;28;20521;-55
2023/09/12 01:31:51;;;;;;;0.60;0.30;;;;;;;15.79;63.16;95574.47;5072953;28;20499;-55
2023/09/12 01:34:20;;;;;;;0.40;0.27;;;;;;;15.76;63.06;95564.41;5073372;28;20445;-55
2023/09/12 02:35:07;;;;;;;0.40;0.30;;;;;;;16.73;62.89;95566.72;5052932;28;20530;-53
2023/09/12 02:37:36;;;;;;;0.40;0.27;;;;;;;16.40;63.90;95553.50;5071945;28;20437;-54
2023/09/12 02:40:06;;;;;;;0.50;0.30;;;;;;;16.61;63.29;95577.19;5071802;28;20495;-53
2023/09/12 02:42:35;;;;;;;0.40;0.20;;;;;;;16.43;63.12;95568.16;5071243;28;20433;-54
2023/09/12 02:45:03;;;;;;;0.50;0.30;;;;;;;15.79;64.94;95579.84;5071816;28;20445;-54
2023/09/12 02:47:32;;;;;;;0.97;0.50;;;;;;;14.84;69.07;95587.50;5072054;28;20950;-54
2023/09/12 02:50:00;;;;;;;0.50;0.20;;;;;;;14.97;69.79;95589.47;5071086;28;20469;-54
2023/09/12 02:52:30;;;;;;;0.93;0.80;;;;;;;14.98;69.49;95575.81;5071597;28;20503;-54
2023/09/12 02:54:58;;;;;;;0.70;0.70;;;;;;;14.74;71.52;95596.47;5071126;28;20444;-54
2023/09/12 02:57:26;;;;;;;0.40;0.30;;;;;;;14.25;73.09;95545.34;5071807;28;20832;-54
2023/09/12 02:59:55;;;;;;;0.50;0.30;;;;;;;14.55;73.61;95596.44;5070952;28;20480;-54
2023/09/12 03:02:23;;;;;;;0.50;0.40;;;;;;;14.55;74.78;95590.31;5071170;28;20520;-54
2023/09/12 03:04:53;;;;;;;0.50;0.30;;;;;;;14.55;72.50;95545.75;5058792;28;20976;-55
2023/09/12 03:07:21;;;;;;;0.70;0.70;;;;;;;14.92;72.86;95602.88;5071347;28;20925;-54
2023/09/12 03:09:51;;;;;;;0.87;0.87;;;;;;;14.79;74.21;95603.59;5070966;28;20560;-54
2023/09/12 03:12:19;;;;;;;0.40;0.20;;;;;;;14.66;74.72;95598.97;5073808;28;20449;-54
2023/09/12 03:14:47;;;;;;;0.40;0.20;;;;;;;14.88;72.94;95607.19;5078061;28;20520;-54
2023/09/12 03:17:16;;;;;;;0.43;0.27;;;;;;;14.89;71.58;95577.56;5077672;28;20445;-54
2023/09/12 03:19:44;;;;;;;0.40;0.30;;;;;;;15.27;70.50;95608.47;5077290;28;20436;-54
2023/09/12 03:22:12;;;;;;;0.40;0.30;;;;;;;14.75;71.70;95560.66;5077591;28;20452;-53
2023/09/12 03:24:41;;;;;;;0.40;0.20;;;;;;;14.73;71.15;95549.50;5077340;28;20502;-55
2023/09/12 03:27:11;;;;;;;0.47;0.20;;;;;;;15.28;70.51;95598.56;5077505;28;20437;-54
2023/09/12 03:29:39;;;;;;;0.50;0.30;;;;;;;15.12;71.17;95559.88;5078103;28;20475;-55
2023/09/12 03:32:07;;;;;;;0.60;0.40;;;;;;;15.55;69.56;95601.38;5077206;28;20453;-54
2023/09/12 03:34:36;;;;;;;0.50;0.30;;;;;;;15.30;70.85;95604.44;5077172;28;21001;-55
2023/09/12 03:37:04;;;;;;;0.50;0.30;;;;;;;14.85;72.24;95552.53;5077034;28;20443;-53
2023/09/12 03:39:33;;;;;;;0.60;0.30;;;;;;;15.37;71.08;95607.53;5078037;28;20441;-54
2023/09/12 03:42:02;;;;;;;1.07;0.43;;;;;;;15.54;70.75;95607.00;5077033;28;20810;-53
2023/09/12 03:44:32;;;;;;;0.40;0.30;;;;;;;15.48;70.11;95616.19;5077621;28;20869;-54
2023/09/12 03:47:00;;;;;;;0.40;0.20;;;;;;;15.41;70.95;95599.69;5051965;28;20456;-54
2023/09/12 03:49:29;;;;;;;0.60;0.30;;;;;;;15.58;70.15;95610.69;5076865;28;20806;-54
2023/09/12 03:51:57;;;;;;;0.93;0.90;;;;;;;15.59;70.29;95601.56;5076894;28;21006;-54
2023/09/12 03:54:26;;;;;;;0.50;0.40;;;;;;;15.58;70.05;95605.34;5076714;28;20498;-54
2023/09/12 03:56:54;;;;;;;0.60;0.40;;;;;;;15.30;70.42;95563.56;5077258;28;20823;-54
2023/09/12 03:59:22;;;;;;;0.40;0.30;;;;;;;15.46;71.06;95610.34;5077306;28;20514;-53
2023/09/12 04:01:52;;;;;;;0.43;0.30;;;;;;;14.88;75.12;95608.00;5077431;28;20449;-54
2023/09/12 04:04:21;;;;;;;0.60;0.30;;;;;;;15.04;74.21;95589.88;5077574;28;20441;-53
2023/09/12 04:06:49;;;;;;;0.83;0.30;;;;;;;15.12;75.19;95610.59;5077247;28;20440;-53
2023/09/12 04:09:18;;;;;;;0.63;0.60;;;;;;;15.29;74.79;95610.84;5076772;28;20442;-53
2023/09/12 04:11:46;;;;;;;0.50;0.40;;;;;;;15.28;74.58;95612.72;5077541;28;20912;-53
2023/09/12 04:14:16;;;;;;;0.60;0.50;;;;;;;15.48;72.35;95616.19;5077018;28;20827;-54
2023/09/12 04:16:44;;;;;;;0.50;0.47;;;;;;;15.25;73.35;95609.84;5077145;28;20488;-53
2023/09/12 04:19:14;;;;;;;0.50;0.40;;;;;;;14.96;75.58;95622.56;5064619;28;20441;-53
2023/09/12 04:21:43;;;;;;;0.60;0.43;;;;;;;14.64;78.55;95617.94;5077171;28;20437;-53
2023/09/12 04:24:11;;;;;;;0.40;0.20;;;;;;;14.44;78.89;95621.66;5072934;28;20843;-54
2023/09/12 04:26:40;;;;;;;0.50;0.30;;;;;;;14.41;79.32;95624.09;5073694;28;20964;-53
2023/09/12 04:29:08;;;;;;;0.77;0.77;;;;;;;14.60;77.26;95624.91;5074264;28;20463;-53
2023/09/12 04:31:37;;;;;;;0.50;0.33;;;;;;;14.68;76.67;95618.94;5073783;28;20476;-54
2023/09/12 04:34:06;;;;;;;1.13;0.30;;;;;;;14.75;76.21;95624.72;5073376;28;20484;-54
2023/09/12 04:36:35;;;;;;;0.50;0.30;;;;;;;14.75;75.59;95592.69;5073688;28;20944;-53
2023/09/12 04:39:05;;;;;;;0.50;0.40;;;;;;;15.23;73.13;95620.81;5073754;28;20528;-53
2023/09/12 04:41:34;;;;;;;0.40;0.23;;;;;;;15.19;73.05;95622.47;5073400;28;20941;-53
2023/09/12 04:44:02;;;;;;;0.53;0.53;;;;;;;14.77;75.73;95624.44;5073859;28;20877;-53
2023/09/12 04:46:30;;;;;;;1.17;0.30;;;;;;;14.67;77.13;95622.72;5073629;28;20456;-53
2023/09/12 04:48:59;;;;;;;0.43;0.30;;;;;;;14.75;76.12;95627.38;5073587;28;20445;-53
2023/09/12 04:51:27;;;;;;;0.40;0.30;;;;;;;14.97;74.84;95632.97;5072907;28;20525;-54
2023/09/12 04:53:57;;;;;;;0.60;0.50;;;;;;;15.05;73.66;95629.63;5073378;28;20516;-54
2023/09/12 04:56:25;;;;;;;0.50;0.40;;;;;;;14.94;73.57;95635.41;5073243;28;20461;-53
2023/09/12 04:58:54;;;;;;;0.40;0.30;;;;;;;14.99;72.86;95632.66;5073705;28;20864;-53
2023/09/12 05:01:22;;;;;;;0.50;0.30;;;;;;;14.91;72.33;95618.09;5072798;28;20437;-54
2023/09/12 05:03:50;;;;;;;0.83;0.40;;;;;;;15.00;72.90;95643.03;5073836;28;20922;-54
2023/09/12 05:06:19;;;;;;;0.80;0.80;;;;;;;15.24;71.53;95630.41;5072877;28;20857;-54
2023/09/12 05:08:47;;;;;;;0.40;0.30;;;;;;;15.26;71.03;95636.25;5072916;28;20441;-53
2023/09/12 05:11:17;;;;;;;0.40;0.30;;;;;;;14.86;72.40;95642.19;5072861;28;20567;-54
2023/09/12 05:13:44;;;;;;;0.87;0.30;;;;;;;14.83;73.32;95640.09;5073153;28;20450;-54
2023/09/12 05:16:12;;;;;;;0.63;0.63;;;;;;;14.67;74.31;95653.94;5073357;28;20503;-54
2023/09/12 05:18:41;;;;;;;0.60;0.60;;;;;;;14.63;74.90;95646.47;5072548;28;20465;-54
2023/09/12 05:21:10;;;;;;;2.40;0.43;;;;;;;14.05;75.36;95569.56;5072439;28;20438;-54
2023/09/12 05:23:38;;;;;;;1.13;0.80;;;;;;;14.74;74.80;95649.81;5072686;28;20449;-54
2023/09/12 05:26:07;;;;;;;0.50;0.47;;;;;;;14.92;74.30;95645.59;5073228;28;20984;-54
2023/09/12 05:28:36;;;;;;;0.60;0.40;;;;;;;15.28;73.39;95644.75;5072719;28;20813;-54
2023/09/12 05:31:05;;;;;;;0.70;0.60;;;;;;;15.46;71.42;95623.69;5072865;28;20479;-54
2023/09/12 05:33:34;;;;;;;0.53;0.30;;;;;;;15.99;70.37;95648.97;5072350;28;20448;-54
2023/09/12 05:36:03;;;;;;;0.40;0.30;;;;;;;16.02;69.53;95648.38;5072496;28;20500;-55
2023/09/12 05:38:32;;;;;;;0.40;0.40;;;;;;;15.81;70.84;95645.25;5073018;28;20442;-55
2023/09/12 05:41:00;;;;;;;0.60;0.40;;;;;;;15.86;71.04;95647.09;5072616;28;20818;-54
2023/09/12 05:43:28;;;;;;;0.50;0.47;;;;;;;16.04;70.85;95650.78;5072156;28;20498;-54
2023/09/12 05:45:58;;;;;;;0.60;0.57;;;;;;;16.46;69.28;95651.31;5072533;28;20929;-54
2023/09/12 05:48:27;;;;;;;0.40;0.30;;;;;;;16.32;68.69;95644.34;5071904;28;20442;-55
2023/09/12 05:50:55;;;;;;;0.60;0.40;;;;;;;16.69;67.97;95646.06;5072424;28;20477;-56
2023/09/12 05:53:23;;;;;;;0.50;0.30;;;;;;;17.43;65.51;95633.97;5072070;28;20452;-56
2023/09/12 05:55:51;;;;;;;1.80;0.80;;;;;;;17.33;66.09;95650.28;5071932;28;20445;-55
2023/09/12 05:58:20;;;;;;;1.33;1.23;;;;;;;17.70;64.98;95637.34;5072266;28;20879;-56
2023/09/12 06:00:48;;;;;;;1.37;0.40;;;;;;;17.61;65.38;95643.72;5071821;28;20719;-56
2023/09/12 06:03:18;;;;;;;0.70;0.47;;;;;;;17.55;64.31;95621.63;5072093;28;20937;-56
2023/09/12 06:05:47;;;;;;;0.60;0.40;;;;;;;17.02;62.68;95446.66;5072129;28;20541;-56
2023/09/12 06:08:15;;;;;;;1.13;1.03;;;;;;;18.53;61.39;95622.28;5072330;28;20448;-56
2023/09/12 06:10:43;;;;;;;0.87;0.60;;;;;;;18.49;61.12;95617.84;5071385;28;21034;-57
2023/09/12 06:13:12;;;;;;;0.70;0.50;;;;;;;18.76;60.08;95622.97;5072254;28;20445;-56
2023/09/12 06:15:41;;;;;;;2.30;0.40;;;;;;;19.18;57.68;95563.09;5071481;28;20516;-56
2023/09/12 06:18:10;;;;;;;0.67;0.60;;;;;;;20.54;55.19;95636.53;5071985;28;20443;-55
2023/09/12 06:20:39;;;;;;;0.60;0.40;;;;;;;21.24;53.90;95626.97;5071012;28;20466;-55
2023/09/12 06:23:08;;;;;;;6.67;1.53;;;;;;;21.51;53.70;95629.13;5071850;28;20487;-56
2023/09/12 06:25:36;;;;;;;0.50;0.50;;;;;;;20.78;53.70;95600.94;5070355;28;20434;-55
2023/09/12 06:28:05;;;;;;;0.50;0.50;;;;;;;20.99;53.99;95641.38;5071894;28;20469;-55
2023/09/12 06:30:33;;;;;;;0.80;0.80;;;;;;;20.97;53.65;95638.25;5071637;28;20929;-56
2023/09/12 06:33:01;;;;;;;0.97;0.60;;;;;;;21.52;53.57;95639.59;5071646;28;20481;-56
2023/09/12 06:35:30;;;;;;;0.40;0.30;;;;;;;21.70;52.40;95640.25;5070079;28;20518;-56
2023/09/12 06:37:59;;;;;;;0.90;0.90;;;;;;;22.08;51.08;95642.75;5064418;28;20836;-56
2023/09/12 06:40:28;;;;;;;2.40;0.63;;;;;;;22.28;50.76;95636.50;5070359;28;20536;-55
2023/09/12 06:42:56;;;;;;;0.57;0.50;;;;;;;22.66;49.38;95631.59;5071404;28;20881;-54
2023/09/12 06:45:24;;;;;;;0.50;0.30;;;;;;;23.24;48.26;95630.28;5045359;28;20449;-54
2023/09/12 06:47:53;;;;;;;0.63;0.63;;;;;;;23.30;47.82;95638.97;5070360;28;20438;-54
2023/09/12 06:50:21;;;;;;;0.40;0.30;;;;;;;23.74;48.74;95640.63;5058576;28;20529;-54
2023/09/12 06:52:49;;;;;;;0.60;0.50;;;;;;;23.81;47.35;95635.41;5071028;28;20535;-54
2023/09/12 06:55:25;;;;;;;0.40;0.30;;;;;;;24.30;46.18;95635.19;5070775;28;20530;-53
2023/09/12 06:57:53;;;;;;;0.60;0.57;;;;;;;24.57;45.38;95635.09;5071486;28;20570;-53
2023/09/12 07:00:22;;;;;;;1.10;0.97;;;;;;;24.19;45.44;95631.41;5070892;28;20532;-52
2023/09/12 07:02:50;;;;;;;0.60;0.30;;;;;;;24.34;44.97;95625.22;5070735;28;20555;-53
2023/09/12 07:05:19;;;;;;;0.50;0.47;;;;;;;24.81;46.35;95625.25;5071176;28;20510;-52
2023/09/12 07:07:47;;;;;;;0.80;0.80;;;;;;;24.43;46.39;95629.34;5070776;28;20491;-53
2023/09/12 07:10:16;;;;;;;0.60;0.40;;;;;;;25.15;45.02;95622.53;5071147;28;20433;-54
2023/09/12 07:12:54;;;;;;;1.80;0.63;;;;;;;25.18;43.70;95638.13;5070787;28;20479;-53
2023/09/12 07:15:22;;;;;;;1.03;0.80;;;;;;;24.99;43.68;95638.09;5071309;28;20540;-53
2023/09/12 07:17:51;;;;;;;2.20;1.50;;;;;;;25.16;43.14;95629.56;5071475;28;20484;-54
2023/09/12 07:20:20;;;;;;;0.70;0.57;;;;;;;25.13;42.81;95632.97;5063735;28;20859;-53
2023/09/12 07:22:48;;;;;;;1.53;0.70;;;;;;;25.18;43.39;95631.91;5071435;28;20464;-53
2023/09/12 07:25:18;;;;;;;0.77;0.50;;;;;;;25.78;43.68;95636.69;5070992;28;20448;-53
2023/09/12 07:27:47;;;;;;;1.27;0.40;;;;;;;25.97;43.25;95626.97;5071256;28;20437;-53
2023/09/12 07:30:17;;;;;;;0.60;0.60;;;;;;;26.39;41.09;95622.31;5070529;28;20450;-52
2023/09/12 07:32:46;;;;;;;0.50;0.50;;;;;;;26.96;40.22;95626.78;5070811;28;20977;-53
2023/09/12 07:35:14;;;;;;;0.40;0.30;;;;;;;27.21;39.86;95618.97;5070697;28;21126;-53
2023/09/12 07:37:43;;;;;;;0.50;0.50;;;;;;;28.12;39.69;95611.97;5071452;28;20789;-49
2023/09/12 07:40:12;;;;;;;0.47;0.30;;;;;;;27.65;37.96;95582.59;5070017;28;20442;-48
2023/09/12 07:42:40;;;;;;;0.60;0.57;;;;;;;27.58;38.72;95604.31;5070588;28;20947;-48
2023/09/12 07:45:09;;;;;;;0.40;0.40;;;;;;;27.45;39.38;95616.59;5070599;28;20480;-48
2023/09/12 07:47:39;;;;;;;0.40;0.30;;;;;;;28.70;39.55;95605.88;5070861;28;21083;-48
2023/09/12 07:50:08;;;;;;;0.77;0.50;;;;;;;28.38;38.94;95602.88;5069337;28;20441;-49
2023/09/12 07:52:37;;;;;;;0.47;0.33;;;;;;;28.18;38.57;95605.00;5070798;28;20530;-49
2023/09/12 07:55:06;;;;;;;0.40;0.40;;;;;;;28.39;37.69;95601.69;5070809;28;20444;-49
2023/09/12 07:57:34;;;;;;;0.90;0.60;;;;;;;28.69;38.48;95596.91;5071104;28;20883;-48
2023/09/12 08:00:07;;;;;;;0.60;0.43;;;;;;;29.28;36.67;95587.59;5074531;28;20887;-49
2023/09/12 08:02:39;;;;;;;0.40;0.30;;;;;;;29.76;35.83;95519.88;5074447;28;21009;-49
2023/09/12 08:05:08;;;;;;;0.40;0.30;;;;;;;30.14;35.35;95586.75;5074277;28;20440;-49
2023/09/12 08:07:37;;;;;;;0.40;0.30;;;;;;;30.20;35.76;95582.47;5061060;28;20542;-49
2023/09/12 08:10:06;;;;;;;0.40;0.40;;;;;;;29.71;35.39;95530.41;5074635;28;20448;-48
2023/09/12 08:12:38;;;;;;;0.50;0.40;;;;;;;30.09;35.65;95584.41;5073738;28;20473;-48
2023/09/12 08:15:08;;;;;;;0.50;0.50;;;;;;;30.12;35.78;95573.50;5074645;28;20531;-49
2023/09/12 08:17:36;;;;;;;0.47;0.37;;;;;;;30.56;34.18;95572.38;5073763;28;20437;-48
2023/09/12 08:20:09;;;;;;;0.43;0.30;;;;;;;30.77;33.21;95566.88;5074001;28;20451;-48
2023/09/12 08:22:38;;;;;;;0.50;0.50;;;;;;;30.86;32.68;95539.91;5074213;28;20452;-49
2023/09/12 08:25:07;;;;;;;0.40;0.30;;;;;;;31.19;34.25;95575.06;5073237;28;20436;-48
2023/09/12 08:27:36;;;;;;;0.40;0.30;;;;;;;30.45;34.37;95571.59;5073805;28;20447;-48
2023/09/12 08:30:04;;;;;;;0.40;0.30;;;;;;;31.64;34.11;95564.38;5073531;28;20442;-48
2023/09/12 08:32:33;;;;;;;0.40;0.33;;;;;;;31.32;34.17;95557.00;5073664;28;20477;-47
2023/09/12 08:35:03;;;;;;;0.40;0.40;;;;;;;31.10;33.66;95562.94;5073580;28;20472;-47
2023/09/12 08:37:33;;;;;;;0.40;0.40;;;;;;;31.54;33.98;95554.25;5073899;28;20433;-47
2023/09/12 08:40:02;;;;;;;0.60;0.40;;;;;;;31.69;33.27;95551.03;5073539;28;20437;-47
2023/09/12 08:42:32;;;;;;;0.87;0.40;;;;;;;32.01;33.00;95550.88;5073797;28;20448;-47
2023/09/12 08:45:00;;;;;;;0.40;0.30;;;;;;;31.62;32.86;95555.78;5073746;28;20475;-51
2023/09/12 08:47:28;;;;;;;0.40;0.30;;;;;;;32.30;31.33;95546.78;5073715;28;20998;-51
2023/09/12 08:49:58;;;;;;;0.40;0.30;;;;;;;32.87;30.97;95535.34;5073944;28;20437;-51
2023/09/12 08:52:27;;;;;;;1.37;0.40;;;;;;;32.33;31.11;95543.25;5073619;28;20525;-52
2023/09/12 08:54:59;;;;;;;7.80;0.50;;;;;;;32.69;30.50;95541.00;5073498;28;20479;-51
2023/09/12 08:57:28;;;;;;;1.00;0.50;;;;;;;31.55;30.85;95540.13;5073589;28;20529;-52
2023/09/12 08:59:57;;;;;;;0.40;0.40;;;;;;;32.11;32.03;95533.59;5073554;28;20433;-52
2023/09/12 09:02:25;;;;;;;0.53;0.53;;;;;;;32.98;30.29;95536.81;5073002;28;20441;-53
2023/09/12 09:04:55;;;;;;;0.40;0.33;;;;;;;32.20;30.74;95536.66;5073464;28;20437;-52
2023/09/12 09:07:23;;;;;;;0.60;0.40;;;;;;;33.07;30.44;95536.34;5073527;28;20812;-52
2023/09/12 09:09:53;;;;;;;0.40;0.30;;;;;;;33.21;30.35;95527.97;5072652;28;20436;-52
2023/09/12 09:12:23;;;;;;;0.40;0.30;;;;;;;33.07;31.17;95528.09;5073014;28;20444;-52
2023/09/12 09:14:52;;;;;;;0.30;0.30;;;;;;;33.46;30.57;95530.41;5073748;28;20469;-52
2023/09/12 09:17:20;;;;;;;0.40;0.30;;;;;;;34.13;29.68;95515.81;5072140;28;20440;-52
2023/09/12 09:20:09;;;;;;;0.60;0.40;;;;;;;34.03;30.31;95527.72;5073390;28;20452;-53
2023/09/12 09:22:37;;;;;;;0.60;0.43;;;;;;;33.77;28.93;95515.50;5072692;28;20428;-53
2023/09/12 09:25:13;;;;;;;0.60;0.60;;;;;;;33.18;29.98;95465.59;5072579;28;20447;-54
2023/09/12 09:27:43;;;;;;;20.47;0.60;;;;;;;32.98;29.26;95486.59;5048833;28;20527;-52
2023/09/12 09:30:12;;;;;;;0.50;0.50;;;;;;;33.29;28.91;95518.44;5073147;28;20823;-53
2023/09/12 09:32:41;;;;;;;0.50;0.30;;;;;;;34.21;28.76;95514.50;5072638;28;20468;-53
2023/09/12 09:35:10;;;;;;;0.60;0.60;;;;;;;34.72;29.13;95514.06;5072534;28;20476;-52
2023/09/12 09:37:39;;;;;;;0.50;0.50;;;;;;;34.89;29.01;95490.94;5072576;28;20436;-53
2023/09/12 09:40:09;;;;;;;0.40;0.30;;;;;;;34.77;28.25;95504.53;5072430;28;20948;-53
2023/09/12 09:42:39;;;;;;;0.30;0.20;;;;;;;35.54;27.12;95491.28;5072594;28;20522;-53
2023/09/12 09:45:10;;;;;;;0.40;0.40;;;;;;;35.39;25.95;95501.03;5071930;28;20442;-53
2023/09/12 09:47:38;;;;;;;0.73;0.60;;;;;;;33.69;25.95;95461.81;5072567;28;20472;-53
2023/09/12 09:50:07;;;;;;;0.63;0.63;;;;;;;33.66;26.62;95501.91;5072122;28;20444;-53
2023/09/12 09:52:35;;;;;;;0.40;0.30;;;;;;;33.86;26.51;95494.56;5072393;28;20437;-53
2023/09/12 09:55:07;;;;;;;0.40;0.30;;;;;;;34.70;26.95;95461.41;5072092;28;20474;-53
2023/09/12 09:57:38;;;;;;;0.40;0.30;;;;;;;33.29;27.82;95470.94;5071703;28;20448;-53
2023/09/12 10:00:14;;;;;;;0.40;0.30;;;;;;;33.28;27.65;95481.16;5071552;28;20455;-53
2023/09/12 10:02:47;;;;;;;2.40;0.53;;;;;;;33.84;28.01;95474.94;5071492;28;20452;-53
2023/09/12 10:05:17;;;;;;;26.17;0.53;;;;;;;34.33;27.04;95450.63;5072038;28;20975;-53
2023/09/12 10:07:50;;;;;;;0.40;0.30;;;;;;;34.93;26.18;95468.84;5072001;28;20507;-53
2023/09/12 10:10:19;;;;;;;0.40;0.30;;;;;;;35.63;26.32;95472.19;5071239;28;20441;-53
2023/09/12 10:12:51;;;;;;;0.70;0.70;;;;;;;35.17;25.80;95431.03;5071524;28;20448;-53
2023/09/12 10:15:23;;;;;;;0.40;0.30;;;;;;;35.20;26.17;95454.94;5071946;28;20436;-53
2023/09/12 10:17:58;;;;;;;0.60;0.60;;;;;;;34.82;26.33;95427.72;5046767;28;20463;-54
2023/09/12 10:20:30;;;;;;;0.40;0.40;;;;;;;34.86;27.43;95453.25;5071043;28;20768;-54
2023/09/12 10:23:08;;;;;;;0.40;0.30;;;;;;;35.57;26.47;95452.59;5070783;28;20273;-54
2023/09/12 10:25:37;;;;;;;0.80;0.63;;;;;;;35.73;25.71;95451.88;5071419;28;20189;-53
2023/09/12 10:28:06;;;;;;;0.50;0.37;;;;;;;36.65;25.17;95425.59;5071290;28;20271;-53
2023/09/12 10:30:37;;;;;;;0.60;0.60;;;;;;;36.46;26.75;95447.81;5071414;28;20282;-53
2023/09/12 10:33:06;;;;;;;5.10;0.40;;;;;;;36.90;25.49;95427.69;5071367;28;20675;-53
2023/09/12 10:35:36;;;;;;;0.50;0.50;;;;;;;35.33;24.62;95382.22;5071075;28;20706;-53
2023/09/12 10:38:08;;;;;;;2.10;1.63;;;;;;;34.32;25.74;95438.84;5071585;28;20744;-53
2023/09/12 10:40:38;;;;;;;2.67;0.50;;;;;;;34.37;25.87;95435.59;5046391;28;20198;-53
2023/09/12 10:43:13;;;;;;;0.50;0.50;;;;;;;35.89;26.45;95427.06;5071261;28;20205;-53
2023/09/12 10:45:44;;;;;;;1.17;1.07;;;;;;;36.47;23.86;95417.00;5071499;28;20197;-54
2023/09/12 10:48:12;;;;;;;0.30;0.23;;;;;;;36.38;24.22;95425.13;5070882;28;20233;-53
2023/09/12 10:50:41;;;;;;;0.50;0.30;;;;;;;36.21;24.60;95429.84;5071682;28;20575;-53
2023/09/12 10:53:12;;;;;;;0.40;0.20;;;;;;;36.97;24.72;95413.69;5071174;28;20187;-53
2023/09/12 10:55:40;;;;;;;1.73;1.63;;;;;;;35.86;24.45;95418.88;5070772;28;20294;-55
2023/09/12 10:58:11;;;;;;;0.40;0.30;;;;;;;35.91;24.83;95413.63;5070453;28;20206;-54
2023/09/12 11:00:40;;;;;;;0.30;0.30;;;;;;;36.00;24.47;95413.06;5071166;28;20617;-54
2023/09/12 11:03:40;;;;;;;0.47;0.40;;;;;;;35.03;24.14;95408.03;5071275;28;20256;-54
2023/09/12 11:06:22;;;;;;;0.30;0.30;;;;;;;36.20;24.49;95408.22;5071019;28;20190;-54
2023/09/12 11:09:19;;;;;;;0.60;0.60;;;;;;;35.61;24.33;95397.38;5070919;28;20690;-53
2023/09/12 11:11:49;;;;;;;2.90;0.40;;;;;;;35.99;23.50;95401.22;5071431;28;20194;-54
2023/09/12 11:14:18;;;;;;;1.80;0.47;;;;;;;36.25;23.05;95397.44;5070994;28;20225;-54
2023/09/12 11:17:21;;;;;;;0.60;0.50;;;;;;;36.67;22.93;95394.78;5071713;28;20194;-54
2023/09/12 11:19:53;;;;;;;0.40;0.37;;;;;;;36.14;23.46;95360.25;5051401;28;20194;-54
2023/09/12 11:22:26;;;;;;;0.50;0.33;;;;;;;36.42;22.60;95386.34;5071593;28;20194;-55
2023/09/12 11:24:55;;;;;;;1.50;1.40;;;;;;;35.59;22.54;95383.25;5071352;28;20228;-56
2023/09/12 11:27:26;;;;;;;1.23;0.32;;;;;;;35.78;22.72;95381.63;5070545;28;20672;-55
2023/09/12 11:30:05;;;;;;;0.50;0.38;;;;;;;35.98;24.00;95374.03;5070910;28;20213;-55
2023/09/12 11:32:37;;;;;;;0.93;0.90;;;;;;;36.16;23.72;95375.19;5071275;28;20202;-55
2023/09/12 11:35:09;;;;;;;0.30;0.30;;;;;;;35.98;23.24;95372.06;5074815;28;20663;-55
2023/09/12 11:37:37;;;;;;;0.30;0.30;;;;;;;37.07;23.27;95365.63;5075730;28;20562;-55
2023/09/12 11:40:19;;;;;;;0.50;0.40;;;;;;;37.39;22.80;95367.47;5074571;28;20228;-55
2023/09/12 11:42:49;;;;;;;0.73;0.63;;;;;;;37.47;22.15;95333.63;5075253;28;20566;-55
2023/09/12 11:45:19;;;;;;;0.40;0.40;;;;;;;37.39;21.81;95345.34;5074296;28;20251;-54
2023/09/12 11:47:48;;;;;;;1.20;0.32;;;;;;;37.45;21.80;95347.13;5075109;28;20237;-54
2023/09/12 11:50:31;;;;;;;0.45;0.45;;;;;;;35.95;22.52;95336.28;5049423;28;20209;-55
2023/09/12 11:53:01;;;;;;;1.25;1.15;;;;;;;35.33;23.36;95342.84;5074250;28;20844;-54
2023/09/12 11:55:32;;;;;;;0.50;0.40;;;;;;;35.54;22.91;95347.91;5074613;28;20221;-54
2023/09/12 11:58:00;;;;;;;0.50;0.50;;;;;;;35.53;22.71;95340.84;5073765;28;20545;-54
2023/09/12 12:00:29;;;;;;;0.40;0.40;;;;;;;35.88;22.00;95290.34;5074583;28;20637;-54
2023/09/12 12:02:59;;;;;;;0.40;0.30;;;;;;;35.72;22.19;95319.91;5074859;28;20256;-54
2023/09/12 12:05:27;;;;;;;0.40;0.30;;;;;;;36.33;21.88;95320.72;5074274;28;20316;-53
2023/09/12 12:07:59;;;;;;;0.93;0.93;;;;;;;36.95;21.92;95330.47;5074625;28;20221;-54
2023/09/12 12:10:50;;;;;;;0.30;0.30;;;;;;;37.93;21.89;95317.56;5073496;28;20657;-54
2023/09/12 12:13:20;;;;;;;0.47;0.45;;;;;;;36.06;22.02;95323.78;5074423;28;20685;-54
2023/09/12 12:15:48;;;;;;;0.37;0.30;;;;;;;35.84;22.34;95311.72;5074009;28;20307;-54
2023/09/12 12:18:17;;;;;;;0.40;0.30;;;;;;;36.94;22.25;95315.09;5074172;28;20193;-54
2023/09/12 12:20:46;;;;;;;0.50;0.40;;;;;;;36.97;21.50;95310.69;5073486;28;20187;-54
2023/09/12 12:23:16;;;;;;;2.40;2.30;;;;;;;36.50;22.00;95310.44;5074378;28;20255;-54
2023/09/12 12:25:44;;;;;;;0.40;0.30;;;;;;;36.14;22.86;95294.81;5073756;28;20248;-54
2023/09/12 12:28:13;;;;;;;0.50;0.40;;;;;;;35.40;22.36;95301.34;5073936;28;20268;-53
2023/09/12 12:30:41;;;;;;;0.30;0.30;;;;;;;35.70;23.47;95288.03;5073739;28;20659;-53
2023/09/12 12:33:11;;;;;;;0.30;0.20;;;;;;;36.08;24.50;95288.25;5074143;28;20202;-54
2023/09/12 12:36:02;;;;;;;0.47;0.40;;;;;;;36.27;22.08;95270.81;5073669;28;20806;-54
2023/09/12 12:38:35;;;;;;;0.40;0.30;;;;;;;36.71;22.55;95290.50;5073919;28;20195;-54
2023/09/12 12:41:06;;;;;;;0.50;0.40;;;;;;;36.30;22.66;95291.22;5073435;28;20198;-54
2023/09/12 12:43:35;;;;;;;0.40;0.30;;;;;;;36.16;23.09;95289.63;5073104;28;20256;-53
2023/09/12 12:46:04;;;;;;;0.80;0.80;;;;;;;36.61;22.82;95289.59;5072298;28;20202;-55